Stations météo

Publicité
Drumnadrochit, Grande-Bretagne (99132): Température de l'air & dewpoint: 14.09.2019 05:00:00 - 20.09.2019 05:00:00 (BST)Drumnadrochit, Grande-Bretagne (99132): Quantités de précipitations: 14.09.2019 05:00:00 - 20.09.2019 05:00:00 (BST)
Date & Time tt [°C] td [°C] rr [mm]
20.09.2019 05:00:00 3,0 3,0 0,0
20.09.2019 04:00:00 3,6 3,5 0,0
20.09.2019 03:00:00 3,5 3,3 0,0
20.09.2019 02:00:00 4,3 4,1 0,0
20.09.2019 01:00:00 4,9 4,7 0,0
20.09.2019 00:00:00 5,8 5,5 0,0
19.09.2019 23:00:00 6,7 6,5 0,0
19.09.2019 22:00:00 7,7 7,1 0,0
19.09.2019 21:00:00 9,1 7,5 0,0
19.09.2019 20:00:00 12,2 10,0 0,0
19.09.2019 19:00:00 14,0 10,3 0,0
19.09.2019 18:00:00 17,1 11,4 0,0
19.09.2019 17:00:00 17,7 12,0 0,0
19.09.2019 16:00:00 18,2 12,6 0,0
19.09.2019 15:00:00 18,0 12,2 0,0
19.09.2019 14:00:00 17,5 12,5 0,0
19.09.2019 13:00:00 16,4 11,8 0,0
19.09.2019 12:00:00 16,5 11,6 0,0
19.09.2019 11:00:00 16,0 12,1 0,0
19.09.2019 10:00:00 14,3 11,5 0,0
19.09.2019 09:00:00 12,9 12,9 0,0
19.09.2019 08:00:00 8,9 8,9 0,0
19.09.2019 07:00:00 7,5 7,5 0,0
19.09.2019 06:00:00 7,2 7,1 0,0
19.09.2019 05:00:00 8,2 8,2 0,0
19.09.2019 04:00:00 8,4 8,4 0,0
19.09.2019 03:00:00 8,1 8,1 0,0
19.09.2019 02:00:00 7,6 7,3 0,0
19.09.2019 01:00:00 9,0 8,6 0,0
19.09.2019 00:00:00 10,1 9,3 0,0
18.09.2019 23:00:00 12,0 11,7 0,0
18.09.2019 22:00:00 11,9 11,5 0,0
18.09.2019 21:00:00 11,9 11,3 0,0
18.09.2019 20:00:00 12,4 11,5 0,0
18.09.2019 19:00:00 12,9 11,7 0,0
18.09.2019 18:00:00 13,4 11,3 0,0
18.09.2019 17:00:00 17,0 14,1 0,0
18.09.2019 16:00:00 16,4 14,0 0,0
18.09.2019 15:00:00 16,5 13,3 0,0
18.09.2019 14:00:00 15,0 13,6 0,0
18.09.2019 13:00:00 15,0 12,1 0,0
18.09.2019 12:00:00 14,2 11,3 0,0
18.09.2019 11:00:00 12,8 10,5 0,0
18.09.2019 10:00:00 12,0 10,1 0,0
18.09.2019 09:00:00 11,0 9,1 0,0
18.09.2019 08:00:00 9,6 8,3 0,0
18.09.2019 07:00:00 8,8 7,7 0,0
18.09.2019 06:00:00 9,0 7,4 0,0
18.09.2019 05:00:00 9,0 7,3 0,0
18.09.2019 04:00:00 7,6 7,2 0,4
18.09.2019 03:00:00 7,7 6,9 0,2
18.09.2019 02:00:00 8,4 6,1 0,0
18.09.2019 01:00:00 8,1 7,5 0,0
18.09.2019 00:00:00 8,1 7,5 0,0
17.09.2019 23:00:00 8,3 7,1 0,0
17.09.2019 22:00:00 8,4 7,3 0,0
17.09.2019 21:00:00 8,5 7,1 0,0
17.09.2019 20:00:00 9,1 7,2 0,0
17.09.2019 19:00:00 10,4 7,2 0,0
17.09.2019 18:00:00 12,2 6,0 0,0
17.09.2019 17:00:00 12,6 3,8 0,0
17.09.2019 16:00:00 12,6 2,5 0,0
17.09.2019 15:00:00 12,7 4,3 0,0
17.09.2019 14:00:00 12,6 4,8 0,0
17.09.2019 13:00:00 12,7 4,5 0,0
17.09.2019 12:00:00 12,1 3,9 0,0
17.09.2019 11:00:00 12,6 4,1 0,0
17.09.2019 10:00:00 11,7 5,2 0,0
17.09.2019 09:00:00 7,6 5,1 0,0
17.09.2019 08:00:00 7,0 6,0 0,0
17.09.2019 07:00:00 5,6 4,5 0,0
17.09.2019 06:00:00 5,8 5,1 0,0
17.09.2019 05:00:00 4,3 3,8 0,2
17.09.2019 04:00:00 5,4 4,5 0,0
17.09.2019 03:00:00 7,5 5,8 0,0
17.09.2019 02:00:00 7,1 6,0 0,0
17.09.2019 01:00:00 8,7 4,8 0,0
17.09.2019 00:00:00 9,4 3,8 0,0
16.09.2019 23:00:00 10,0 4,7 0,0
16.09.2019 22:00:00 10,0 7,4 0,0
16.09.2019 21:00:00 10,1 7,1 0,0
16.09.2019 20:00:00 9,2 6,2 0,0
16.09.2019 19:00:00 10,9 7,6 0,2
16.09.2019 18:00:00 12,1 8,1 0,0
16.09.2019 17:00:00 11,4 8,0 0,0
16.09.2019 16:00:00 15,1 7,8 0,0
16.09.2019 15:00:00 13,7 8,0 0,0
16.09.2019 14:00:00 13,4 6,8 0,0
16.09.2019 13:00:00 12,0 7,5 0,0
16.09.2019 12:00:00 12,4 6,7 0,0
16.09.2019 11:00:00 11,6 7,6 0,0
16.09.2019 10:00:00 10,4 8,1 0,0
16.09.2019 09:00:00 9,4 7,0 0,0
16.09.2019 08:00:00 7,5 6,1 0,0
16.09.2019 07:00:00 6,3 5,1 0,0
16.09.2019 06:00:00 3,7 3,6 0,0
16.09.2019 05:00:00 2,8 2,4 0,0
16.09.2019 04:00:00 3,9 3,8 0,0
16.09.2019 03:00:00 3,4 3,3 0,0
16.09.2019 02:00:00 3,1 2,6 0,0
16.09.2019 01:00:00 4,1 4,0 0,0
16.09.2019 00:00:00 4,0 3,3 0,0
15.09.2019 23:00:00 5,7 3,8 0,0
15.09.2019 22:00:00 7,9 5,4 0,0
15.09.2019 21:00:00 8,0 5,5 0,0
15.09.2019 20:00:00 8,8 3,8 0,0
15.09.2019 19:00:00 11,9 4,6 0,0
15.09.2019 18:00:00 13,2 3,1 0,0
15.09.2019 17:00:00 14,2 3,6 0,0
15.09.2019 16:00:00 15,2 5,1 0,0
15.09.2019 15:00:00 14,9 4,8 0,0
15.09.2019 14:00:00 15,0 5,0 0,0
15.09.2019 13:00:00 13,7 5,7 0,0
15.09.2019 12:00:00 14,2 5,0 0,0
15.09.2019 11:00:00 12,1 5,4 0,0
15.09.2019 10:00:00 11,9 5,6 0,0
15.09.2019 09:00:00 11,3 4,0 0,0
15.09.2019 08:00:00 10,8 4,1 0,0
15.09.2019 07:00:00 10,3 3,0 0,0
15.09.2019 06:00:00 9,4 3,6 0,0
15.09.2019 05:00:00 10,8 2,7 0,0
15.09.2019 04:00:00 11,2 5,4 0,0
15.09.2019 03:00:00 10,4 5,0 0,0
15.09.2019 02:00:00 10,8 4,7 0,0
15.09.2019 01:00:00 11,8 6,2 0,0
15.09.2019 00:00:00 12,1 6,8 0,0
14.09.2019 23:00:00 12,2 7,1 0,0
14.09.2019 22:00:00 11,4 8,6 0,6
14.09.2019 21:00:00 11,3 8,6 0,8
14.09.2019 20:00:00 14,4 11,7 0,4
14.09.2019 19:00:00 15,4 13,3 0,4
14.09.2019 18:00:00 15,6 13,3 0,6
14.09.2019 17:00:00 15,4 13,2 1,0
14.09.2019 16:00:00 15,7 12,9 0,0
14.09.2019 15:00:00 14,5 12,9 0,2
14.09.2019 14:00:00 13,8 11,9 0,0
14.09.2019 13:00:00 13,2 11,1 0,0
14.09.2019 12:00:00 12,9 10,7 0,0
14.09.2019 11:00:00 12,3 10,5 0,0
14.09.2019 10:00:00 11,9 10,2 0,0
14.09.2019 09:00:00 11,8 9,4 0,0
14.09.2019 08:00:00 12,0 8,6 0,0
14.09.2019 07:00:00 13,0 7,3 0,0
14.09.2019 06:00:00 12,2 7,9 0,0
14.09.2019 05:00:00 12,2 8,8 0,0

tt = Température de l'air
td = dewpoint
rr = Quantités de précipitations

stations d'obs. à proximité